METAR Data
IDs: Format: Raw Decoded Include TAF

Data at: 2027 UTC 23 Oct 2021

ETNS 232020Z AUTO 17007KT 5000 // ////// 07/06 Q1027 ///